createdAt,value
2023-08-27T00:00:19.533Z,16.44
2023-08-27T00:01:19.539Z,16.56
2023-08-27T00:02:19.507Z,16.58
2023-08-27T00:03:19.702Z,16.52
2023-08-27T00:04:19.542Z,16.56
2023-08-27T00:05:19.482Z,16.52
2023-08-27T00:06:19.464Z,16.53
2023-08-27T00:07:19.451Z,16.48
2023-08-27T00:08:19.454Z,16.56
2023-08-27T00:09:20.420Z,16.50
2023-08-27T00:10:19.424Z,16.48
2023-08-27T00:11:19.484Z,16.62
2023-08-27T00:12:19.408Z,16.49
2023-08-27T00:13:19.448Z,16.40
2023-08-27T00:14:19.389Z,16.42
2023-08-27T00:15:19.387Z,16.40
2023-08-27T00:16:19.396Z,16.42
2023-08-27T00:17:19.399Z,16.53
2023-08-27T00:18:19.361Z,16.50
2023-08-27T00:19:19.340Z,16.45
2023-08-27T00:20:19.333Z,16.45
2023-08-27T00:21:19.315Z,16.56
2023-08-27T00:22:19.333Z,16.44
2023-08-27T00:23:19.304Z,16.52
2023-08-27T00:24:19.296Z,16.50
2023-08-27T00:25:19.286Z,16.50
2023-08-27T00:26:19.283Z,16.44
2023-08-27T00:27:19.308Z,16.52
2023-08-27T00:28:19.245Z,16.50
2023-08-27T00:29:19.234Z,16.52
2023-08-27T00:30:19.232Z,16.49
2023-08-27T00:31:19.319Z,16.50
2023-08-27T00:32:25.531Z,16.41
2023-08-27T00:33:21.351Z,16.44
2023-08-27T00:34:19.190Z,16.48
2023-08-27T00:35:19.187Z,16.48
2023-08-27T00:36:19.195Z,16.44
2023-08-27T00:37:19.149Z,16.37
2023-08-27T00:38:19.161Z,16.41
2023-08-27T00:39:19.135Z,16.34
2023-08-27T00:40:19.168Z,16.34
2023-08-27T00:41:19.137Z,16.41
2023-08-27T00:42:19.102Z,16.30
2023-08-27T00:43:19.094Z,16.40
2023-08-27T00:44:19.093Z,16.35
2023-08-27T00:45:19.100Z,16.33
2023-08-27T00:46:19.083Z,16.40
2023-08-27T00:47:19.070Z,16.38
2023-08-27T00:48:19.052Z,16.30
2023-08-27T00:49:19.042Z,16.33
2023-08-27T00:50:19.049Z,16.35
2023-08-27T00:51:19.015Z,16.26
2023-08-27T00:52:19.009Z,16.18
2023-08-27T00:53:19.025Z,16.30
2023-08-27T00:54:19.007Z,16.25
2023-08-27T00:55:19.007Z,16.38
2023-08-27T00:56:18.974Z,16.33
2023-08-27T00:57:18.957Z,16.33
2023-08-27T00:58:18.968Z,16.26
2023-08-27T00:59:18.996Z,16.35
2023-08-27T01:00:18.964Z,16.23
2023-08-27T01:01:18.966Z,16.26
2023-08-27T01:02:18.973Z,16.22
2023-08-27T01:03:19.010Z,16.25
2023-08-27T01:04:18.942Z,16.27
2023-08-27T01:05:18.902Z,16.14
2023-08-27T01:06:18.890Z,16.18
2023-08-27T01:07:18.873Z,16.35
2023-08-27T01:08:18.892Z,16.30
2023-08-27T01:09:18.892Z,16.27
2023-08-27T01:10:18.844Z,16.35
2023-08-27T01:11:18.846Z,16.22
2023-08-27T01:12:18.827Z,16.27
2023-08-27T01:13:18.854Z,16.25
2023-08-27T01:14:18.859Z,16.34
2023-08-27T01:15:18.802Z,16.33
2023-08-27T01:16:18.791Z,16.26
2023-08-27T01:17:18.801Z,16.33
2023-08-27T01:18:18.789Z,16.40
2023-08-27T01:19:18.796Z,16.25
2023-08-27T01:20:18.763Z,16.26
2023-08-27T01:21:18.763Z,16.26
2023-08-27T01:22:18.756Z,16.26
2023-08-27T01:23:18.750Z,16.30
2023-08-27T01:24:18.712Z,16.37
2023-08-27T01:25:18.693Z,16.31
2023-08-27T01:26:18.688Z,16.33
2023-08-27T01:27:18.727Z,16.45
2023-08-27T01:28:18.708Z,16.40
2023-08-27T01:29:18.649Z,16.48
2023-08-27T01:30:18.663Z,16.44
2023-08-27T01:31:18.690Z,16.50
2023-08-27T01:32:18.671Z,16.48
2023-08-27T01:33:18.625Z,16.49
2023-08-27T01:34:18.622Z,16.40
2023-08-27T01:35:18.620Z,16.45
2023-08-27T01:36:18.635Z,16.49
2023-08-27T01:37:18.624Z,16.44
2023-08-27T01:38:18.562Z,16.45
2023-08-27T01:39:18.560Z,16.44
2023-08-27T01:40:18.550Z,16.38
2023-08-27T01:41:18.601Z,16.41
2023-08-27T01:42:18.544Z,16.45
2023-08-27T01:43:18.526Z,16.40
2023-08-27T01:44:18.526Z,16.41
2023-08-27T01:45:18.512Z,16.52
2023-08-27T01:46:18.533Z,16.52
2023-08-27T01:47:18.487Z,16.52
2023-08-27T01:48:18.494Z,16.45
2023-08-27T01:49:18.470Z,16.55
2023-08-27T01:50:18.478Z,16.48
2023-08-27T01:51:18.496Z,16.50
2023-08-27T01:52:18.446Z,16.52
2023-08-27T01:53:18.426Z,16.50
2023-08-27T01:54:18.410Z,16.56
2023-08-27T01:55:18.419Z,16.45
2023-08-27T01:56:18.382Z,16.58
2023-08-27T01:57:18.385Z,16.55
2023-08-27T01:58:18.366Z,16.45
2023-08-27T01:59:18.374Z,16.60
2023-08-27T02:00:18.402Z,16.60
2023-08-27T02:01:18.368Z,16.58
2023-08-27T02:02:18.377Z,16.60
2023-08-27T02:03:18.381Z,16.50
2023-08-27T02:04:18.336Z,16.49
2023-08-27T02:05:18.316Z,16.48
2023-08-27T02:06:18.287Z,16.53
2023-08-27T02:07:18.289Z,16.55
2023-08-27T02:08:18.278Z,16.52
2023-08-27T02:09:18.318Z,16.45
2023-08-27T02:10:18.258Z,16.44
2023-08-27T02:11:50.132Z,16.48
2023-08-27T02:12:18.224Z,16.48
2023-08-27T02:13:18.209Z,16.34
2023-08-27T02:14:18.222Z,16.38
2023-08-27T02:15:18.194Z,16.42
2023-08-27T02:16:18.212Z,16.49
2023-08-27T02:17:18.174Z,16.48
2023-08-27T02:18:18.193Z,16.35
2023-08-27T02:19:18.165Z,16.42
2023-08-27T02:20:18.140Z,16.38
2023-08-27T02:21:18.127Z,16.30
2023-08-27T02:22:18.118Z,16.48
2023-08-27T02:23:18.180Z,16.35
2023-08-27T02:24:18.100Z,16.30
2023-08-27T02:25:18.102Z,16.44
2023-08-27T02:26:18.078Z,16.44
2023-08-27T02:27:18.070Z,16.38
2023-08-27T02:28:18.082Z,16.52
2023-08-27T02:29:18.046Z,16.26
2023-08-27T02:30:18.043Z,16.44
2023-08-27T02:31:18.105Z,16.42
2023-08-27T02:32:18.051Z,16.41
2023-08-27T02:33:18.069Z,16.30
2023-08-27T02:34:18.010Z,16.44
2023-08-27T02:35:17.991Z,16.35
2023-08-27T02:36:18.002Z,16.31
2023-08-27T02:37:17.993Z,16.45
2023-08-27T02:38:17.963Z,16.42
2023-08-27T02:39:17.964Z,16.31
2023-08-27T02:40:17.940Z,16.25
2023-08-27T02:41:17.930Z,16.27
2023-08-27T02:42:17.951Z,16.41
2023-08-27T02:43:17.897Z,16.23
2023-08-27T02:44:18.911Z,16.25
2023-08-27T02:45:17.907Z,16.30
2023-08-27T02:46:17.966Z,16.35
2023-08-27T02:47:17.894Z,16.22
2023-08-27T02:48:17.855Z,16.31
2023-08-27T02:49:17.853Z,16.30
2023-08-27T02:50:17.849Z,16.26
2023-08-27T02:51:17.847Z,16.20
2023-08-27T02:52:17.829Z,16.26
2023-08-27T02:53:17.823Z,16.33
2023-08-27T02:54:17.837Z,16.33
2023-08-27T02:55:17.811Z,16.26
2023-08-27T02:56:17.798Z,16.35
2023-08-27T02:57:17.776Z,16.26
2023-08-27T02:58:17.778Z,16.26
2023-08-27T02:59:17.754Z,16.18
2023-08-27T03:00:17.774Z,16.15
2023-08-27T03:01:17.760Z,16.25
2023-08-27T03:02:17.716Z,16.26
2023-08-27T03:03:17.764Z,16.22
2023-08-27T03:04:17.700Z,16.25
2023-08-27T03:05:17.777Z,16.14
2023-08-27T03:06:17.697Z,16.31
2023-08-27T03:07:17.672Z,16.20
2023-08-27T03:08:17.682Z,16.15
2023-08-27T03:09:17.718Z,16.12
2023-08-27T03:10:17.676Z,16.06
2023-08-27T03:11:17.698Z,16.12
2023-08-27T03:12:17.663Z,16.11
2023-08-27T03:13:17.614Z,16.06
2023-08-27T03:14:17.684Z,16.15
2023-08-27T03:15:17.593Z,16.15
2023-08-27T03:16:17.640Z,16.14
2023-08-27T03:17:17.591Z,16.07
2023-08-27T03:18:17.579Z,16.11
2023-08-27T03:19:17.577Z,16.07
2023-08-27T03:20:17.574Z,16.11
2023-08-27T03:21:17.551Z,16.07
2023-08-27T03:22:17.541Z,16.14
2023-08-27T03:23:17.533Z,16.18
2023-08-27T03:24:17.527Z,16.14
2023-08-27T03:25:17.501Z,16.12
2023-08-27T03:26:17.488Z,16.16
2023-08-27T03:27:17.508Z,16.03
2023-08-27T03:28:17.491Z,16.00
2023-08-27T03:29:17.472Z,15.93
2023-08-27T03:30:17.455Z,15.75
2023-08-27T03:31:17.486Z,15.82
2023-08-27T03:32:17.446Z,15.79
2023-08-27T03:33:17.460Z,15.81
2023-08-27T03:34:17.429Z,15.81
2023-08-27T03:35:17.399Z,15.79
2023-08-27T03:36:17.392Z,15.84
2023-08-27T03:37:17.407Z,15.82
2023-08-27T03:38:17.397Z,15.92
2023-08-27T03:39:17.394Z,15.92
2023-08-27T03:40:17.348Z,15.96
2023-08-27T03:41:17.359Z,15.93
2023-08-27T03:42:17.357Z,16.00
2023-08-27T03:43:17.333Z,16.00
2023-08-27T03:44:17.328Z,16.03
2023-08-27T03:45:17.298Z,15.97
2023-08-27T03:46:17.323Z,16.04
2023-08-27T03:47:17.305Z,15.93
2023-08-27T03:48:17.282Z,16.07
2023-08-27T03:49:17.297Z,16.09
2023-08-27T03:50:17.261Z,15.99
2023-08-27T03:51:17.256Z,16.01
2023-08-27T03:52:17.281Z,16.01
2023-08-27T03:53:17.248Z,15.89
2023-08-27T03:54:17.212Z,15.93
2023-08-27T03:55:17.249Z,15.89
2023-08-27T03:56:17.234Z,15.92
2023-08-27T03:57:17.188Z,15.94
2023-08-27T03:58:17.169Z,15.99
2023-08-27T03:59:17.160Z,15.93
2023-08-27T04:00:17.169Z,15.96
2023-08-27T04:01:17.253Z,16.00
2023-08-27T04:02:17.149Z,15.94
2023-08-27T04:03:17.329Z,15.96
2023-08-27T04:04:17.193Z,16.03
2023-08-27T04:05:17.147Z,15.97
2023-08-27T04:06:17.122Z,16.04
2023-08-27T04:07:17.083Z,15.96
2023-08-27T04:08:17.069Z,16.00
2023-08-27T04:09:17.063Z,16.01
2023-08-27T04:10:17.066Z,15.97
2023-08-27T04:11:17.043Z,15.99
2023-08-27T04:12:17.033Z,15.85
2023-08-27T04:13:17.027Z,15.92
2023-08-27T04:14:17.002Z,15.94
2023-08-27T04:15:17.068Z,15.94
2023-08-27T04:16:17.042Z,15.92
2023-08-27T04:17:16.997Z,15.94
2023-08-27T04:18:17.032Z,15.84
2023-08-27T04:19:16.976Z,15.86
2023-08-27T04:20:17.002Z,15.82
2023-08-27T04:21:16.939Z,15.92
2023-08-27T04:22:16.925Z,15.78
2023-08-27T04:23:16.918Z,15.79
2023-08-27T04:24:17.740Z,15.78
2023-08-27T04:25:17.935Z,15.76
2023-08-27T04:26:16.900Z,15.82
2023-08-27T04:27:16.922Z,15.70
2023-08-27T04:28:17.863Z,15.79
2023-08-27T04:29:16.893Z,15.89
2023-08-27T04:30:16.848Z,15.81
2023-08-27T04:31:16.858Z,15.75
2023-08-27T04:32:16.842Z,15.78
2023-08-27T04:33:16.945Z,15.81
2023-08-27T04:34:16.859Z,15.85
2023-08-27T04:35:16.822Z,15.84
2023-08-27T04:36:16.799Z,15.82
2023-08-27T04:37:16.810Z,15.74
2023-08-27T04:38:16.798Z,15.86
2023-08-27T04:39:16.796Z,15.88
2023-08-27T04:40:16.770Z,15.86
2023-08-27T04:41:16.762Z,15.88
2023-08-27T04:42:16.759Z,15.82
2023-08-27T04:43:16.771Z,15.93
2023-08-27T04:44:16.726Z,15.89
2023-08-27T04:45:16.723Z,15.88
2023-08-27T04:46:16.699Z,15.93
2023-08-27T04:47:16.698Z,15.85
2023-08-27T04:48:16.721Z,15.89
2023-08-27T04:49:16.658Z,15.76
2023-08-27T04:50:16.658Z,15.82
2023-08-27T04:51:16.648Z,15.75
2023-08-27T04:52:29.870Z,15.79
2023-08-27T04:53:18.692Z,15.75
2023-08-27T04:54:16.636Z,15.85
2023-08-27T04:55:16.615Z,15.82
2023-08-27T04:56:16.600Z,15.89
2023-08-27T04:57:16.624Z,15.86
2023-08-27T04:58:16.676Z,15.81
2023-08-27T04:59:16.580Z,15.75
2023-08-27T05:00:16.566Z,15.82
2023-08-27T05:01:16.613Z,15.70
2023-08-27T05:02:16.591Z,15.60
2023-08-27T05:03:16.562Z,15.68
2023-08-27T05:04:16.538Z,15.54
2023-08-27T05:05:16.525Z,15.64
2023-08-27T05:06:16.527Z,15.66
2023-08-27T05:07:16.500Z,15.68
2023-08-27T05:08:16.483Z,15.72
2023-08-27T05:09:16.483Z,15.78
2023-08-27T05:10:16.466Z,15.78
2023-08-27T05:11:16.479Z,15.85
2023-08-27T05:12:16.441Z,15.78
2023-08-27T05:13:16.441Z,15.72
2023-08-27T05:14:16.496Z,15.72
2023-08-27T05:15:16.444Z,15.74
2023-08-27T05:16:16.447Z,15.64
2023-08-27T05:17:16.400Z,15.60
2023-08-27T05:18:16.469Z,15.59
2023-08-27T05:19:16.370Z,15.59
2023-08-27T05:20:16.379Z,15.57
2023-08-27T05:21:16.363Z,15.59
2023-08-27T05:22:16.355Z,15.63
2023-08-27T05:23:16.350Z,15.64
2023-08-27T05:24:16.340Z,15.81
2023-08-27T05:25:16.341Z,15.81
2023-08-27T05:26:16.311Z,15.75
2023-08-27T05:27:16.323Z,15.79
2023-08-27T05:28:16.285Z,15.79
2023-08-27T05:29:16.287Z,15.86
2023-08-27T05:30:16.332Z,15.85
2023-08-27T05:31:16.332Z,15.93
2023-08-27T05:32:16.247Z,15.96
2023-08-27T05:33:16.242Z,15.96
2023-08-27T05:34:16.229Z,16.09
2023-08-27T05:35:16.210Z,16.11
2023-08-27T05:36:16.218Z,16.09
2023-08-27T05:37:16.199Z,16.04
2023-08-27T05:38:16.204Z,16.16
2023-08-27T05:39:16.198Z,16.18
2023-08-27T05:40:16.161Z,16.23
2023-08-27T05:41:16.161Z,16.16
2023-08-27T05:42:16.146Z,16.20
2023-08-27T05:43:16.173Z,16.14
2023-08-27T05:44:16.160Z,16.12
2023-08-27T05:45:16.106Z,16.07
2023-08-27T05:46:16.114Z,16.11
2023-08-27T05:47:16.090Z,16.16
2023-08-27T05:48:16.139Z,16.16
2023-08-27T05:49:16.069Z,16.26
2023-08-27T05:50:16.066Z,16.23
2023-08-27T05:51:16.040Z,16.23
2023-08-27T05:52:16.068Z,16.16
2023-08-27T05:53:17.042Z,16.07
2023-08-27T05:54:16.016Z,16.09
2023-08-27T05:55:16.003Z,16.00
2023-08-27T05:56:15.991Z,15.92
2023-08-27T05:57:16.001Z,15.82
2023-08-27T05:58:15.996Z,15.89
2023-08-27T05:59:15.975Z,15.93
2023-08-27T06:00:15.975Z,16.03
2023-08-27T06:01:15.960Z,16.09
2023-08-27T06:02:15.951Z,16.06
2023-08-27T06:03:15.951Z,16.11
2023-08-27T06:04:15.929Z,16.16
2023-08-27T06:05:15.912Z,16.12
2023-08-27T06:06:15.895Z,16.14
2023-08-27T06:07:15.902Z,16.20
2023-08-27T06:08:15.871Z,16.25
2023-08-27T06:09:15.860Z,16.18
2023-08-27T06:10:15.918Z,16.35
2023-08-27T06:11:15.866Z,16.23
2023-08-27T06:12:15.896Z,16.18
2023-08-27T06:13:15.827Z,16.25
2023-08-27T06:14:15.821Z,16.20
2023-08-27T06:15:15.805Z,16.18
2023-08-27T06:16:15.910Z,16.25
2023-08-27T06:17:15.812Z,16.31
2023-08-27T06:18:15.807Z,16.27
2023-08-27T06:19:15.764Z,16.31
2023-08-27T06:20:15.751Z,16.40
2023-08-27T06:21:15.768Z,16.48
2023-08-27T06:22:15.738Z,16.50
2023-08-27T06:23:15.720Z,16.62
2023-08-27T06:24:15.743Z,16.53
2023-08-27T06:25:15.733Z,16.55
2023-08-27T06:26:15.705Z,16.59
2023-08-27T06:27:15.693Z,16.55
2023-08-27T06:28:15.683Z,16.56
2023-08-27T06:29:15.669Z,16.62
2023-08-27T06:30:15.673Z,16.62
2023-08-27T06:31:15.640Z,16.63
2023-08-27T06:32:15.643Z,16.59
2023-08-27T06:33:15.642Z,16.67
2023-08-27T06:34:15.623Z,16.74
2023-08-27T06:35:15.639Z,16.71
2023-08-27T06:36:15.597Z,16.78
2023-08-27T06:37:15.583Z,16.80
2023-08-27T06:38:15.571Z,16.77
2023-08-27T06:39:15.597Z,16.89
2023-08-27T06:40:15.572Z,16.95
2023-08-27T06:41:15.539Z,17.03
2023-08-27T06:42:15.544Z,17.10
2023-08-27T06:43:15.570Z,16.96
2023-08-27T06:44:15.549Z,17.06
2023-08-27T06:45:15.525Z,17.00
2023-08-27T06:46:15.516Z,17.07
2023-08-27T06:47:15.481Z,17.07
2023-08-27T06:48:15.543Z,16.92
2023-08-27T06:49:15.492Z,16.86
2023-08-27T06:50:15.463Z,16.98
2023-08-27T06:51:15.447Z,16.93
2023-08-27T06:52:15.434Z,17.11
2023-08-27T06:53:15.431Z,17.17
2023-08-27T06:54:15.497Z,17.23
2023-08-27T06:55:15.423Z,17.28
2023-08-27T06:56:15.405Z,17.30
2023-08-27T06:57:15.382Z,17.18
2023-08-27T06:58:15.399Z,17.22
2023-08-27T06:59:15.436Z,17.30
2023-08-27T07:00:15.366Z,17.46
2023-08-27T07:01:15.449Z,17.53
2023-08-27T07:02:15.331Z,17.62
2023-08-27T07:03:15.394Z,17.71
2023-08-27T07:04:15.330Z,17.97
2023-08-27T07:05:15.336Z,18.02
2023-08-27T07:06:15.296Z,18.18
2023-08-27T07:07:15.321Z,18.21
2023-08-27T07:08:15.303Z,18.24
2023-08-27T07:09:15.277Z,18.24
2023-08-27T07:10:15.284Z,18.27
2023-08-27T07:11:15.260Z,18.40
2023-08-27T07:12:15.261Z,18.44
2023-08-27T07:13:15.250Z,18.52
2023-08-27T07:14:15.244Z,18.57
2023-08-27T07:15:15.234Z,18.47
2023-08-27T07:16:15.214Z,18.33
2023-08-27T07:17:15.223Z,18.50
2023-08-27T07:18:15.199Z,18.54
2023-08-27T07:19:15.175Z,18.64
2023-08-27T07:20:15.170Z,18.72
2023-08-27T07:21:15.154Z,18.72
2023-08-27T07:22:15.160Z,18.74
2023-08-27T07:23:15.134Z,18.83
2023-08-27T07:24:15.117Z,18.92
2023-08-27T07:25:16.517Z,19.02
2023-08-27T07:26:15.128Z,18.98
2023-08-27T07:27:15.120Z,19.11
2023-08-27T07:28:15.086Z,18.94
2023-08-27T07:29:15.072Z,18.84
2023-08-27T07:30:15.068Z,18.74
2023-08-27T07:31:15.132Z,18.79
2023-08-27T07:32:15.046Z,18.91
2023-08-27T07:33:15.025Z,18.58
2023-08-27T07:34:15.020Z,18.58
2023-08-27T07:35:15.005Z,18.62
2023-08-27T07:36:15.028Z,18.72
2023-08-27T07:37:14.984Z,18.82
2023-08-27T07:38:14.980Z,18.95
2023-08-27T07:39:14.965Z,18.99
2023-08-27T07:40:14.981Z,19.13
2023-08-27T07:41:14.958Z,19.14
2023-08-27T07:42:14.942Z,19.20
2023-08-27T07:43:14.925Z,19.17
2023-08-27T07:44:14.919Z,19.14
2023-08-27T07:45:14.921Z,19.21
2023-08-27T07:46:14.945Z,19.17
2023-08-27T07:47:14.886Z,19.18
2023-08-27T07:48:14.904Z,19.21
2023-08-27T07:49:14.869Z,19.35
2023-08-27T07:50:14.879Z,19.43
2023-08-27T07:51:14.863Z,19.53
2023-08-27T07:52:14.855Z,19.60
2023-08-27T07:53:14.826Z,19.55
2023-08-27T07:54:14.846Z,19.55
2023-08-27T07:55:14.845Z,19.65
2023-08-27T07:56:14.818Z,19.76
2023-08-27T07:57:14.792Z,19.63
2023-08-27T07:58:14.788Z,19.48
2023-08-27T07:59:14.796Z,19.60
2023-08-27T08:00:14.774Z,19.61
2023-08-27T08:01:14.802Z,19.68
2023-08-27T08:02:14.756Z,19.65
2023-08-27T08:03:14.824Z,19.65
2023-08-27T08:04:14.780Z,19.87
2023-08-27T08:05:14.722Z,19.76
2023-08-27T08:06:14.714Z,19.76
2023-08-27T08:07:14.699Z,19.73
2023-08-27T08:08:14.700Z,19.70
2023-08-27T08:09:14.713Z,19.79
2023-08-27T08:10:14.676Z,19.88
2023-08-27T08:11:14.651Z,19.73
2023-08-27T08:12:14.654Z,19.79
2023-08-27T08:13:46.559Z,19.83
2023-08-27T08:14:14.638Z,19.90
2023-08-27T08:15:14.614Z,19.86
2023-08-27T08:16:14.630Z,19.84
2023-08-27T08:17:14.595Z,19.91
2023-08-27T08:18:14.656Z,19.86
2023-08-27T08:19:14.590Z,20.06
2023-08-27T08:20:14.776Z,20.02
2023-08-27T08:21:14.554Z,20.02
2023-08-27T08:22:14.561Z,20.08
2023-08-27T08:23:14.547Z,20.30
2023-08-27T08:24:16.493Z,20.30
2023-08-27T08:25:15.514Z,20.35
2023-08-27T08:26:14.498Z,20.42
2023-08-27T08:27:14.502Z,20.30
2023-08-27T08:28:14.484Z,20.35
2023-08-27T08:29:14.482Z,20.28
2023-08-27T08:30:14.485Z,20.24
2023-08-27T08:31:14.495Z,20.15
2023-08-27T08:32:14.476Z,20.21
2023-08-27T08:33:14.462Z,20.27
2023-08-27T08:34:14.473Z,20.35
2023-08-27T08:35:14.468Z,20.34
2023-08-27T08:36:14.522Z,20.43
2023-08-27T08:37:14.524Z,20.51
2023-08-27T08:38:14.478Z,20.69
2023-08-27T08:39:14.379Z,20.84
2023-08-27T08:40:14.389Z,20.95
2023-08-27T08:41:14.397Z,21.04
2023-08-27T08:42:14.356Z,21.02
2023-08-27T08:43:14.355Z,21.04
2023-08-27T08:44:14.330Z,21.14
2023-08-27T08:45:14.322Z,21.13
2023-08-27T08:46:14.416Z,20.61
2023-08-27T08:47:14.309Z,20.38
2023-08-27T08:48:14.330Z,20.35
2023-08-27T08:49:14.282Z,20.56
2023-08-27T08:50:14.300Z,20.69
2023-08-27T08:51:14.402Z,20.76
2023-08-27T08:52:14.247Z,20.93
2023-08-27T08:53:14.260Z,21.08
2023-08-27T08:54:14.225Z,21.05
2023-08-27T08:55:14.256Z,20.95
2023-08-27T08:56:14.209Z,20.93
2023-08-27T08:57:14.207Z,20.89
2023-08-27T08:58:14.198Z,21.04
2023-08-27T08:59:14.184Z,21.02
2023-08-27T09:00:14.205Z,20.59
2023-08-27T09:01:14.305Z,20.64
2023-08-27T09:02:14.159Z,20.66
2023-08-27T09:03:14.138Z,20.65
2023-08-27T09:04:15.149Z,20.68
2023-08-27T09:05:14.180Z,20.69
2023-08-27T09:06:14.120Z,20.76
2023-08-27T09:07:14.098Z,20.62
2023-08-27T09:08:14.091Z,20.81
2023-08-27T09:09:14.092Z,20.80
2023-08-27T09:10:14.074Z,20.80
2023-08-27T09:11:14.055Z,20.93
2023-08-27T09:12:14.047Z,21.02
2023-08-27T09:13:14.039Z,21.08
2023-08-27T09:14:14.048Z,21.17
2023-08-27T09:15:14.022Z,21.34
2023-08-27T09:16:14.021Z,21.39
2023-08-27T09:17:13.994Z,21.36
2023-08-27T09:18:14.020Z,21.34
2023-08-27T09:19:14.001Z,21.44
2023-08-27T09:20:13.966Z,21.50
2023-08-27T09:21:13.955Z,21.36
2023-08-27T09:22:14.959Z,21.42
2023-08-27T09:23:13.973Z,21.44
2023-08-27T09:24:13.941Z,21.53
2023-08-27T09:25:13.928Z,21.59
2023-08-27T09:26:13.918Z,21.54
2023-08-27T09:27:13.904Z,21.71
2023-08-27T09:28:13.970Z,21.69
2023-08-27T09:29:13.892Z,21.51
2023-08-27T09:30:13.869Z,21.39
2023-08-27T09:31:13.856Z,21.26
2023-08-27T09:32:13.919Z,21.27
2023-08-27T09:33:13.884Z,21.19
2023-08-27T09:34:13.832Z,20.79
2023-08-27T09:35:13.822Z,20.89
2023-08-27T09:36:13.844Z,20.93
2023-08-27T09:37:13.852Z,20.99
2023-08-27T09:38:13.798Z,21.36
2023-08-27T09:39:13.805Z,21.36
2023-08-27T09:40:13.803Z,21.54
2023-08-27T09:41:13.759Z,21.46
2023-08-27T09:42:13.768Z,21.67
2023-08-27T09:43:13.748Z,21.78
2023-08-27T09:44:13.731Z,21.88
2023-08-27T09:45:13.729Z,21.82
2023-08-27T09:46:13.820Z,21.61
2023-08-27T09:47:13.747Z,21.39
2023-08-27T09:48:13.745Z,21.38
2023-08-27T09:49:13.683Z,21.53
2023-08-27T09:50:13.680Z,21.63
2023-08-27T09:51:13.695Z,21.76
2023-08-27T09:52:13.653Z,21.99
2023-08-27T09:53:13.658Z,22.01
2023-08-27T09:54:13.637Z,21.99
2023-08-27T09:55:13.628Z,21.90
2023-08-27T09:56:13.673Z,21.44
2023-08-27T09:57:13.603Z,21.08
2023-08-27T09:58:13.636Z,21.16
2023-08-27T09:59:13.608Z,21.44
2023-08-27T10:00:13.597Z,21.48
2023-08-27T10:01:13.657Z,21.34
2023-08-27T10:02:13.557Z,21.06
2023-08-27T10:03:13.620Z,20.96
2023-08-27T10:04:13.563Z,21.17
2023-08-27T10:05:16.300Z,21.08
2023-08-27T10:06:13.516Z,21.16
2023-08-27T10:07:13.501Z,21.14
2023-08-27T10:08:13.537Z,21.44
2023-08-27T10:09:13.495Z,21.19
2023-08-27T10:10:13.496Z,21.23
2023-08-27T10:11:13.476Z,21.41
2023-08-27T10:12:13.470Z,21.66
2023-08-27T10:13:13.446Z,21.82
2023-08-27T10:14:13.474Z,21.79
2023-08-27T10:15:13.445Z,21.98
2023-08-27T10:16:13.497Z,21.95
2023-08-27T10:17:13.403Z,21.60
2023-08-27T10:18:13.507Z,21.79
2023-08-27T10:19:13.435Z,22.07
2023-08-27T10:20:13.383Z,21.90
2023-08-27T10:21:13.366Z,21.83
2023-08-27T10:22:13.363Z,22.06
2023-08-27T10:23:13.344Z,21.97
2023-08-27T10:24:13.364Z,21.64
2023-08-27T10:25:13.331Z,21.36
2023-08-27T10:26:13.324Z,21.30
2023-08-27T10:27:13.314Z,21.27
2023-08-27T10:28:13.310Z,21.45
2023-08-27T10:29:13.305Z,21.82
2023-08-27T10:30:13.310Z,22.12
2023-08-27T10:31:13.299Z,22.27
2023-08-27T10:32:13.256Z,22.43
2023-08-27T10:33:13.275Z,22.62
2023-08-27T10:34:13.263Z,22.67
2023-08-27T10:35:13.283Z,22.56
2023-08-27T10:36:13.217Z,22.56
2023-08-27T10:37:13.206Z,22.71
2023-08-27T10:38:13.217Z,22.71
2023-08-27T10:39:13.200Z,22.65
2023-08-27T10:40:13.187Z,22.53
2023-08-27T10:41:13.172Z,22.77
2023-08-27T10:42:13.179Z,22.87
2023-08-27T10:43:13.170Z,23.02
2023-08-27T10:44:13.141Z,22.90
2023-08-27T10:45:13.145Z,22.38
2023-08-27T10:46:13.142Z,22.22
2023-08-27T10:47:13.149Z,22.07
2023-08-27T10:48:13.155Z,22.25
2023-08-27T10:49:13.093Z,21.98
2023-08-27T10:50:13.092Z,21.51
2023-08-27T10:51:13.085Z,21.71
2023-08-27T10:52:13.657Z,21.85
2023-08-27T10:53:13.045Z,21.75
2023-08-27T10:54:13.040Z,21.64
2023-08-27T10:55:13.051Z,21.71
2023-08-27T10:56:13.024Z,22.01
2023-08-27T10:57:13.038Z,22.07
2023-08-27T10:58:13.004Z,22.19
2023-08-27T10:59:12.997Z,22.01
2023-08-27T11:00:12.988Z,21.67
2023-08-27T11:01:13.044Z,21.71
2023-08-27T11:02:12.989Z,21.83
2023-08-27T11:03:12.989Z,21.67
2023-08-27T11:04:12.954Z,21.88
2023-08-27T11:05:12.941Z,22.04
2023-08-27T11:06:12.953Z,22.20
2023-08-27T11:07:12.973Z,22.10
2023-08-27T11:08:12.922Z,21.88
2023-08-27T11:09:17.467Z,21.95
2023-08-27T11:10:14.935Z,22.01
2023-08-27T11:11:12.896Z,22.14
2023-08-27T11:12:12.872Z,22.28
2023-08-27T11:13:12.855Z,22.41
2023-08-27T11:14:19.970Z,22.37
2023-08-27T11:15:14.886Z,22.39
2023-08-27T11:16:12.835Z,22.64
2023-08-27T11:17:12.826Z,22.87
2023-08-27T11:18:12.830Z,23.09
2023-08-27T11:19:12.804Z,23.19
2023-08-27T11:20:12.809Z,23.45
2023-08-27T11:21:12.782Z,23.45
2023-08-27T11:22:12.909Z,22.53
2023-08-27T11:23:12.762Z,22.54
2023-08-27T11:24:12.768Z,22.84
2023-08-27T11:25:12.814Z,22.94
2023-08-27T11:26:12.731Z,22.94
2023-08-27T11:27:12.742Z,23.08
2023-08-27T11:28:12.739Z,23.22
2023-08-27T11:29:12.734Z,23.09
2023-08-27T11:30:12.711Z,22.96
2023-08-27T11:31:12.756Z,22.92
2023-08-27T11:32:12.676Z,22.86
2023-08-27T11:33:12.681Z,22.96
2023-08-27T11:34:12.705Z,22.86
2023-08-27T11:35:12.647Z,22.92
2023-08-27T11:36:12.629Z,23.14
2023-08-27T11:37:15.644Z,23.17
2023-08-27T11:38:12.640Z,23.46
2023-08-27T11:39:12.620Z,23.09
2023-08-27T11:40:12.635Z,23.24
2023-08-27T11:41:12.588Z,23.31
2023-08-27T11:42:12.693Z,23.29
2023-08-27T11:43:12.585Z,23.35
2023-08-27T11:44:13.593Z,23.53
2023-08-27T11:45:12.548Z,23.49
2023-08-27T11:46:12.563Z,23.34
2023-08-27T11:47:12.538Z,23.39
2023-08-27T11:48:12.595Z,23.55
2023-08-27T11:49:12.511Z,23.39
2023-08-27T11:50:12.503Z,23.27
2023-08-27T11:51:12.493Z,23.05
2023-08-27T11:52:12.539Z,23.11
2023-08-27T11:53:12.500Z,23.35
2023-08-27T11:54:12.459Z,23.42
2023-08-27T11:55:12.462Z,23.31
2023-08-27T11:56:12.448Z,23.46
2023-08-27T11:57:12.469Z,23.43
2023-08-27T11:58:12.425Z,23.47
2023-08-27T11:59:12.420Z,23.58
2023-08-27T12:00:12.466Z,23.53
2023-08-27T12:01:12.448Z,23.52
2023-08-27T12:02:12.408Z,23.47
2023-08-27T12:03:12.421Z,23.45
2023-08-27T12:04:12.383Z,23.34
2023-08-27T12:05:12.390Z,23.43
2023-08-27T12:06:12.365Z,23.45
2023-08-27T12:07:12.368Z,23.57
2023-08-27T12:08:12.334Z,23.32
2023-08-27T12:09:12.312Z,23.38
2023-08-27T12:10:12.314Z,23.29
2023-08-27T12:11:12.326Z,23.19
2023-08-27T12:12:12.293Z,22.99
2023-08-27T12:13:12.309Z,22.99
2023-08-27T12:14:12.272Z,23.01
2023-08-27T12:15:12.259Z,23.08
2023-08-27T12:16:12.292Z,23.05
2023-08-27T12:17:12.250Z,23.09
2023-08-27T12:18:12.278Z,22.94
2023-08-27T12:19:12.220Z,22.99
2023-08-27T12:20:12.225Z,22.87
2023-08-27T12:21:12.218Z,22.93
2023-08-27T12:22:12.187Z,22.90
2023-08-27T12:23:12.221Z,22.75
2023-08-27T12:24:12.174Z,22.86
2023-08-27T12:25:12.177Z,22.82
2023-08-27T12:26:12.153Z,22.64
2023-08-27T12:27:12.154Z,22.64
2023-08-27T12:28:12.140Z,22.72
2023-08-27T12:29:12.135Z,22.69
2023-08-27T12:30:12.163Z,22.71
2023-08-27T12:31:12.155Z,22.72
2023-08-27T12:32:12.119Z,22.67
2023-08-27T12:33:12.091Z,22.44
2023-08-27T12:34:12.124Z,22.44
2023-08-27T12:35:12.129Z,22.43
2023-08-27T12:36:12.058Z,22.44
2023-08-27T12:37:12.057Z,22.37
2023-08-27T12:38:12.102Z,22.43
2023-08-27T12:39:12.053Z,22.41
2023-08-27T12:40:12.044Z,22.25
2023-08-27T12:41:12.040Z,22.12
2023-08-27T12:42:12.006Z,22.01
2023-08-27T12:43:12.003Z,21.98
2023-08-27T12:44:12.009Z,21.76
2023-08-27T12:45:11.991Z,21.57
2023-08-27T12:46:11.997Z,21.51
2023-08-27T12:47:11.961Z,21.17
2023-08-27T12:48:12.025Z,20.79
2023-08-27T12:49:11.949Z,20.31
2023-08-27T12:50:11.944Z,20.23
2023-08-27T12:51:11.915Z,20.35
2023-08-27T12:52:11.919Z,20.51